C0sta Favolosa — ICPK — position and weather

sailwx.info

Track history (hours):
 
Tides and Currents Weather Stations Pressure Air Temp Water Temp Dewpoint Dewpoint Depression Visibility Wind Speed Wind Dir Waves Ship Positions

C0sta Favolosa

Last reported at 2018-Sep-19 03:30 UTC. Time now 2018-Sep-19 03:40 UTC.
Position N 43°48' E 008°10'.

Length 289 m; draft 8.3 m.

Type: Ship. MMSI: 247311100.

Date/timePositionNaut miles runAvg speedWind from/ knotsBaromVisibWave heightAir tempDewpointWater temp
2018-Sep-19 03:30N 43°48' E 008°10'818.2
2018-Sep-19 03:03N 43°43' E 008°02'118.2
2018-Sep-19 03:00N 43°42' E 008°01'918.1
2018-Sep-19 02:30N 43°37' E 007°51'818.3
2018-Sep-19 02:03N 43°31' E 007°43'118.4
2018-Sep-19 02:00N 43°30' E 007°42'918.5
2018-Sep-19 01:30N 43°24' E 007°33'818.8
2018-Sep-19 01:04N 43°18' E 007°25'119.0
2018-Sep-19 01:00N 43°17' E 007°24'918.2
2018-Sep-19 00:30N 43°11' E 007°14'613.0
2018-Sep-19 00:03N 43°07' E 007°08'112.8
2018-Sep-19 00:00N 43°07' E 007°08'612.8
2018-Sep-18 23:30N 43°03' E 007°01'612.8
2018-Sep-18 23:03N 42°59' E 006°55'113.0
2018-Sep-18 22:59N 42°58' E 006°54'712.9
2018-Sep-18 22:26N 42°54' E 006°46'7212.0
2018-Sep-18 16:25N 43°09' E 005°09'512.7
2018-Sep-18 16:02N 43°14' E 005°09'012.7
2018-Sep-18 15:59N 43°14' E 005°09'612.3
2018-Sep-18 15:30N 43°19' E 005°14'4 9.9
2018-Sep-18 15:04N 43°21' E 005°19'0 5.2
2018-Sep-18 15:01N 43°21' E 005°20'0 0.2
2018-Sep-18 14:28N 43°21' E 005°20'0 0.0
2018-Sep-18 10:13N 43°21' E 005°20'0 0.0
2018-Sep-18 07:31N 43°21' E 005°20'0 0.0
2018-Sep-18 07:25N 43°21' E 005°20'0 0.0
2018-Sep-18 07:01N 43°21' E 005°20'0 0.0
2018-Sep-18 06:55N 43°21' E 005°20'0 0.0
2018-Sep-18 06:28N 43°21' E 005°20'0 1.0
2018-Sep-18 06:04N 43°21' E 005°19'0 5.4
2018-Sep-18 06:00N 43°21' E 005°19'5 9.1
2018-Sep-18 05:29N 43°18' E 005°14'510.8
2018-Sep-18 05:03N 43°15' E 005°09'113.0
2018-Sep-18 05:00N 43°15' E 005°08'1018.4
2018-Sep-18 04:29N 43°08' E 004°59'4418.2
2018-Sep-18 02:03N 42°36' E 004°18'1117.0
2018-Sep-18 01:25N 42°31' E 004°05'9216.9
2018-Sep-17 19:58N 41°26' E 002°37'817.9
2018-Sep-17 19:30N 41°21' E 002°28'817.9
2018-Sep-17 19:03N 41°16' E 002°19'117.5
2018-Sep-17 19:00N 41°16' E 002°18'612.7
2018-Sep-17 18:30N 41°18' E 002°10'3 6.8
2018-Sep-17 18:01N 41°21' E 002°10'0 0.0
2018-Sep-17 17:59N 41°21' E 002°10'0 0.0
2018-Sep-17 17:24N 41°21' E 002°10'0 0.0
2018-Sep-17 17:03N 41°21' E 002°10'0 0.0
2018-Sep-17 17:00N 41°21' E 002°10'0 0.0
2018-Sep-17 16:29N 41°21' E 002°10'0 0.0
2018-Sep-17 16:02N 41°21' E 002°10'0 0.0
2018-Sep-17 15:59N 41°21' E 002°10'0 0.0
2018-Sep-17 15:30N 41°21' E 002°10'0 0.0
2018-Sep-17 15:02N 41°21' E 002°10'0 0.0
2018-Sep-17 14:59N 41°21' E 002°10'0 0.0
2018-Sep-17 14:31N 41°21' E 002°10'0 0.0
2018-Sep-17 13:59N 41°21' E 002°10'0 0.0
2018-Sep-17 13:29N 41°21' E 002°10'0 0.0
2018-Sep-17 13:02N 41°21' E 002°10'0 0.0
2018-Sep-17 12:59N 41°21' E 002°10'0 0.0
2018-Sep-17 12:29N 41°21' E 002°10'0 0.0
2018-Sep-17 12:02N 41°21' E 002°10'0 0.0
2018-Sep-17 11:59N 41°21' E 002°10'0 0.0
2018-Sep-17 11:30N 41°21' E 002°10'0 0.0
2018-Sep-17 11:02N 41°21' E 002°10'0 0.0
2018-Sep-17 11:00N 41°21' E 002°10'0 0.0
2018-Sep-17 10:28N 41°21' E 002°10'0 0.1
2018-Sep-17 10:03N 41°21' E 002°10'0 0.6
2018-Sep-17 10:00N 41°21' E 002°10'1 1.8
2018-Sep-17 09:30N 41°20' E 002°10'4 9.7
2018-Sep-17 09:03N 41°16' E 002°11'114.7
2018-Sep-17 09:00N 41°15' E 002°12'917.7
2018-Sep-17 08:30N 41°07' E 002°08'920.8
2018-Sep-17 08:03N 40°58' E 002°03'221.0
2018-Sep-17 07:57N 40°57' E 002°01'19721.0
2018-Sep-16 22:35N 38°05' W 000°03'420.6
2018-Sep-16 22:24N 38°02' W 000°06'2120.4
2018-Sep-16 21:23N 37°45' W 000°21'820.7
2018-Sep-16 21:00N 37°38' W 000°26'1220.6
2018-Sep-16 20:25N 37°29' W 000°36'820.9
2018-Sep-16 20:02N 37°24' W 000°44'121.2
2018-Sep-16 20:00N 37°23' W 000°44'1021.0
2018-Sep-16 19:30N 37°16' W 000°54'1020.7
2018-Sep-16 19:02N 37°10' W 001°03'120.8
2018-Sep-16 18:58N 37°09' W 001°05'21119.7
2018-Sep-16 08:15N 36°00' W 005°13'421.6
2018-Sep-16 08:03N 35°59' W 005°18'121.5
2018-Sep-16 08:00N 35°59' W 005°19'1420.6
2018-Sep-16 07:20N 35°55' W 005°36'921.0
2018-Sep-16 06:55N 35°55' W 005°47'921.0
2018-Sep-16 06:29N 35°54' W 005°58'1120.3
2018-Sep-16 05:58N 35°55' W 006°11'9019.1
2018-Sep-16 01:15N 36°18' W 007°58'519.8
2018-Sep-16 01:00N 36°19' W 008°04'1219.5
2018-Sep-16 00:22N 36°23' W 008°19'719.5
2018-Sep-16 00:01N 36°25' W 008°27'019.9
2018-Sep-16 00:00N 36°25' W 008°27'1019.5
2018-Sep-15 23:30N 36°27' W 008°39'919.3
2018-Sep-15 23:03N 36°29' W 008°49'119.4
2018-Sep-15 23:00N 36°29' W 008°51'1019.6
2018-Sep-15 22:30N 36°31' W 009°02'919.3
2018-Sep-15 22:03N 36°33' W 009°13'119.1
2018-Sep-15 22:00N 36°34' W 009°14'918.9
2018-Sep-15 21:30N 36°39' W 009°24'920.1
2018-Sep-15 21:03N 36°46' W 009°31'119.4
2018-Sep-15 21:00N 36°46' W 009°32'1019.6
2018-Sep-15 20:30N 36°56' W 009°35'919.8
2018-Sep-15 20:03N 37°05' W 009°35'119.8
2018-Sep-15 20:00N 37°06' W 009°34'1019.8
2018-Sep-15 19:30N 37°16' W 009°34'919.8
2018-Sep-15 19:03N 37°24' W 009°33'119.8
2018-Sep-15 19:00N 37°26' W 009°32'1019.5
2018-Sep-15 18:30N 37°35' W 009°31'919.2
2018-Sep-15 18:03N 37°44' W 009°30'119.6
2018-Sep-15 18:00N 37°45' W 009°30'1019.5
2018-Sep-15 17:30N 37°54' W 009°29'919.5
2018-Sep-15 17:03N 38°03' W 009°28'119.5
2018-Sep-15 17:00N 38°04' W 009°28'1019.5
2018-Sep-15 16:30N 38°14' W 009°27'919.6
2018-Sep-15 16:03N 38°23' W 009°26'119.6
2018-Sep-15 16:00N 38°24' W 009°26'1019.5
2018-Sep-15 15:30N 38°33' W 009°25'817.0
2018-Sep-15 15:03N 38°40' W 009°19'611.0
2018-Sep-15 14:30N 38°41' W 009°12'4 6.9
2018-Sep-15 13:59N 38°43' W 009°07'0 0.0
2018-Sep-15 13:28N 38°43' W 009°07'0 0.0
2018-Sep-15 13:02N 38°43' W 009°07'0 0.0
2018-Sep-15 12:59N 38°43' W 009°07'0 0.0
2018-Sep-15 12:29N 38°43' W 009°07'0 0.0
2018-Sep-15 12:01N 38°43' W 009°07'0 0.0
2018-Sep-15 11:58N 38°43' W 009°07'0 0.0
2018-Sep-15 11:27N 38°43' W 009°07'0 0.0
2018-Sep-15 11:03N 38°43' W 009°07'0 0.0
2018-Sep-15 11:00N 38°43' W 009°07'0 0.0
2018-Sep-15 10:30N 38°43' W 009°07'0 0.0
2018-Sep-15 10:03N 38°43' W 009°07'0 0.0
2018-Sep-15 09:57N 38°43' W 009°07'0 0.0
2018-Sep-15 09:26N 38°43' W 009°07'0 0.0
2018-Sep-15 09:01N 38°43' W 009°07'0 0.0
2018-Sep-15 08:55N 38°43' W 009°07'0 0.0
2018-Sep-15 08:27N 38°43' W 009°07'0 0.0
2018-Sep-15 08:02N 38°43' W 009°07'0 0.0
2018-Sep-15 07:59N 38°43' W 009°07'0 0.0
2018-Sep-15 07:28N 38°43' W 009°07'0 0.0
2018-Sep-15 07:03N 38°43' W 009°07'0 0.0
2018-Sep-15 07:00N 38°43' W 009°07'0 0.0
2018-Sep-15 06:30N 38°43' W 009°07'0 0.5
2018-Sep-15 06:03N 38°42' W 009°07'0 2.9
2018-Sep-15 06:00N 38°42' W 009°08'4 7.5
2018-Sep-15 05:30N 38°41' W 009°12'510.6
2018-Sep-15 05:03N 38°40' W 009°18'117.6
2018-Sep-15 05:00N 38°40' W 009°19'815.5
2018-Sep-15 04:31N 38°36' W 009°27'817.6
2018-Sep-15 04:04N 38°36' W 009°38'118.0
2018-Sep-15 04:00N 38°36' W 009°39'917.0
2018-Sep-15 03:30N 38°44' W 009°43'817.9
2018-Sep-15 03:04N 38°52' W 009°43'118.1
2018-Sep-15 03:00N 38°53' W 009°43'917.9
2018-Sep-15 02:30N 39°02' W 009°44'818.8
2018-Sep-15 02:03N 39°11' W 009°44'120.0
2018-Sep-15 02:01N 39°12' W 009°44'1019.2
2018-Sep-15 01:30N 39°21' W 009°43'919.3
2018-Sep-15 01:03N 39°30' W 009°44'118.9
2018-Sep-15 01:01N 39°31' W 009°45'918.3
2018-Sep-15 00:30N 39°40' W 009°46'716.3
2018-Sep-15 00:03N 39°47' W 009°43'217.9
2018-Sep-14 23:55N 39°48' W 009°40'716.6
2018-Sep-14 23:30N 39°55' W 009°36'716.7
2018-Sep-14 23:03N 40°02' W 009°39'118.2
2018-Sep-14 22:59N 40°03' W 009°38'917.9
2018-Sep-14 22:30N 40°11' W 009°34'918.7
2018-Sep-14 22:02N 40°20' W 009°32'318.1
2018-Sep-14 21:54N 40°22' W 009°31'718.1
2018-Sep-14 21:30N 40°29' W 009°29'5618.4
2018-Sep-14 18:26N 41°24' W 009°13'918.9
2018-Sep-14 17:59N 41°32' W 009°10'1319.1
2018-Sep-14 17:17N 41°45' W 009°06'418.7
2018-Sep-14 17:03N 41°50' W 009°05'218.5
2018-Sep-14 16:58N 41°51' W 009°05'  
2018-Sep-12 08:47N 49°02' W 005°23'819.4
2018-Sep-12 08:23N 49°06' W 005°12'3519.1
2018-Sep-12 06:32N 49°24' W 004°26'418.5
2018-Sep-12 06:19N 49°26' W 004°20'519.4
2018-Sep-12 06:03N 49°29' W 004°13'319.4
2018-Sep-12 05:56N 49°30' W 004°10'1019.7
2018-Sep-12 05:25N 49°35' W 003°57'820.2
2018-Sep-12 05:01N 49°38' W 003°45'120.5
2018-Sep-12 04:58N 49°39' W 003°44'1321.1
2018-Sep-12 04:20N 49°46' W 003°26'622.0
2018-Sep-12 04:03N 49°49' W 003°19'221.6
2018-Sep-12 03:58N 49°50' W 003°16'1022.4
2018-Sep-12 03:30N 49°57' W 003°04'1022.8
2018-Sep-12 03:03N 49°59' W 002°48'123.1
2018-Sep-12 03:00N 49°60' W 002°46'1123.1
2018-Sep-12 02:30N 50°02' W 002°29'1023.2
2018-Sep-12 02:03N 50°05' W 002°13'123.2
2018-Sep-12 02:00N 50°05' W 002°12'1122.8
2018-Sep-12 01:30N 50°08' W 001°54'1021.5
2018-Sep-12 01:03N 50°10' W 001°39'122.0
2018-Sep-12 01:00N 50°10' W 001°38'1020.7
2018-Sep-12 00:31N 50°09' W 001°22'919.4
2018-Sep-12 00:03N 50°05' W 001°10'120.1
2018-Sep-12 00:00N 50°04' W 001°09'1019.4
2018-Sep-11 23:31N 49°57' W 000°58'919.0
2018-Sep-11 23:03N 49°51' W 000°48'118.6
2018-Sep-11 23:01N 49°51' W 000°47'1018.9
2018-Sep-11 22:30N 49°44' W 000°36'819.1
2018-Sep-11 22:03N 49°38' W 000°27'119.2
2018-Sep-11 22:00N 49°37' W 000°26'817.1
2018-Sep-11 21:31N 49°33' W 000°15'714.7
2018-Sep-11 21:03N 49°32' W 000°05'0 7.5
2018-Sep-11 21:00N 49°31' W 000°04'713.3
2018-Sep-11 20:31N 49°29' E 000°05'1 2.5
2018-Sep-11 20:01N 49°29' E 000°07'0 0.0
2018-Sep-11 19:58N 49°29' E 000°07'0 0.0
2018-Sep-11 19:30N 49°29' E 000°07'0 0.0
2018-Sep-11 19:02N 49°29' E 000°07'0 0.0
2018-Sep-11 18:59N 49°29' E 000°07'0 0.0
2018-Sep-11 18:29N 49°29' E 000°07'0 0.0
2018-Sep-11 17:59N 49°29' E 000°07'0 0.0
2018-Sep-11 17:28N 49°29' E 000°07'0 0.0
2018-Sep-11 17:01N 49°29' E 000°07'0 0.0
2018-Sep-11 16:58N 49°29' E 000°07'0 0.0
2018-Sep-11 16:30N 49°29' E 000°07'0 0.0
2018-Sep-11 16:02N 49°29' E 000°07'0 0.0
2018-Sep-11 15:59N 49°29' E 000°07'0 0.0
2018-Sep-11 15:28N 49°29' E 000°07'0 0.0
2018-Sep-11 15:01N 49°29' E 000°07'0 0.0
2018-Sep-11 14:58N 49°29' E 000°07'0 0.0
2018-Sep-11 14:28N 49°29' E 000°07'0 0.0
2018-Sep-11 14:00N 49°29' E 000°07'0 0.0
2018-Sep-11 13:29N 49°29' E 000°07'0 0.0
2018-Sep-11 12:58N 49°29' E 000°07'0 0.0
2018-Sep-11 12:29N 49°29' E 000°07'0 0.0
2018-Sep-11 12:02N 49°29' E 000°07'0 0.0
2018-Sep-11 11:59N 49°29' E 000°07'0 0.0
2018-Sep-11 11:28N 49°29' E 000°07'0 0.0
2018-Sep-11 11:01N 49°29' E 000°07'0 0.0
2018-Sep-11 10:58N 49°29' E 000°07'0 0.0
2018-Sep-11 10:29N 49°29' E 000°07'0 0.0
2018-Sep-11 10:02N 49°29' E 000°07'0 0.0
2018-Sep-11 09:59N 49°29' E 000°07'0 0.0
2018-Sep-11 09:29N 49°29' E 000°07'0 0.0
2018-Sep-11 09:02N 49°29' E 000°07'0 0.0
2018-Sep-11 08:59N 49°29' E 000°07'0 0.0
2018-Sep-11 08:28N 49°29' E 000°07'0 0.0
2018-Sep-11 08:01N 49°29' E 000°07'0 0.0
2018-Sep-11 07:58N 49°29' E 000°07'0 0.0
2018-Sep-11 07:29N 49°29' E 000°07'0 0.0
2018-Sep-11 07:03N 49°29' E 000°07'0 0.0
2018-Sep-11 06:59N 49°29' E 000°07'0 0.0
2018-Sep-11 06:30N 49°29' E 000°07'1 2.7
2018-Sep-11 06:03N 49°29' E 000°05'0 6.9
2018-Sep-11 06:00N 49°29' E 000°05'713.8
2018-Sep-11 05:31N 49°31' W 000°05'612.7
2018-Sep-11 05:03N 49°35' W 000°11'117.2
2018-Sep-11 05:00N 49°36' W 000°11'1020.1
2018-Sep-11 04:30N 49°46' W 000°12'1021.6
2018-Sep-11 04:03N 49°56' W 000°11'121.6
2018-Sep-11 04:00N 49°57' W 000°11'1121.7
2018-Sep-11 03:30N 50°08' W 000°10'1021.7
2018-Sep-11 03:03N 50°18' W 000°07'122.2
2018-Sep-11 03:00N 50°19' W 000°07'1121.1
2018-Sep-11 02:30N 50°28' W 000°00'1022.2
2018-Sep-11 02:03N 50°32' E 000°14'122.3
2018-Sep-11 02:00N 50°32' E 000°16'1121.9
2018-Sep-11 01:30N 50°36' E 000°32'920.7
2018-Sep-11 01:03N 50°41' E 000°44'120.6
2018-Sep-11 01:00N 50°42' E 000°45'1020.0
2018-Sep-11 00:30N 50°48' E 000°58'919.1
2018-Sep-11 00:03N 50°54' E 001°08'118.9
2018-Sep-11 00:00N 50°54' E 001°09'918.6
2018-Sep-10 23:30N 51°01' E 001°20'818.7
2018-Sep-10 23:03N 51°06' E 001°30'119.8
2018-Sep-10 23:00N 51°07' E 001°31'1020.2
2018-Sep-10 22:30N 51°15' E 001°42'1022.3
2018-Sep-10 22:03N 51°25' E 001°45'122.9
2018-Sep-10 22:01N 51°26' E 001°45'1223.2
2018-Sep-10 21:31N 51°37' E 001°45'1123.4
2018-Sep-10 21:04N 51°48' E 001°44'121.7
2018-Sep-10 21:01N 51°49' E 001°43'714.0
2018-Sep-10 20:30N 51°53' E 001°33'510.5
2018-Sep-10 20:03N 51°56' E 001°29'115.1
2018-Sep-10 20:00N 51°56' E 001°27'510.7
2018-Sep-10 19:30N 51°56' E 001°19'2 4.1
2018-Sep-10 19:02N 51°57' E 001°16'0 0.8
2018-Sep-10 18:59N 51°57' E 001°16'0 0.0
2018-Sep-10 18:29N 51°57' E 001°16'0 0.0
2018-Sep-10 18:02N 51°57' E 001°16'0 0.0
2018-Sep-10 17:59N 51°57' E 001°16'0 0.0
2018-Sep-10 17:29N 51°57' E 001°16'0 0.0
2018-Sep-10 17:02N 51°57' E 001°16'0 0.0
2018-Sep-10 16:59N 51°57' E 001°16'0 0.0
2018-Sep-10 16:29N 51°57' E 001°16'0 0.0
2018-Sep-10 16:02N 51°57' E 001°16'0 0.0
2018-Sep-10 16:00N 51°57' E 001°16'0 0.0
2018-Sep-10 15:28N 51°57' E 001°16'0 0.0
2018-Sep-10 15:01N 51°57' E 001°16'0 0.0
2018-Sep-10 14:58N 51°57' E 001°16'0 0.0
2018-Sep-10 14:01N 51°57' E 001°16'0 0.0
2018-Sep-10 13:58N 51°57' E 001°16'0 0.0
2018-Sep-10 13:28N 51°57' E 001°16'0 0.0
2018-Sep-10 13:01N 51°57' E 001°16'0 0.0
2018-Sep-10 12:58N 51°57' E 001°16'0 0.0
2018-Sep-10 12:30N 51°57' E 001°16'0 0.0
2018-Sep-10 12:03N 51°57' E 001°16'0 0.0
2018-Sep-10 12:00N 51°57' E 001°16'0 0.0
2018-Sep-10 11:30N 51°57' E 001°16'0 0.0
2018-Sep-10 11:02N 51°57' E 001°16'0 0.0
2018-Sep-10 10:59N 51°57' E 001°16'0 0.0
2018-Sep-10 10:29N 51°57' E 001°16'0 0.0
2018-Sep-10 10:03N 51°57' E 001°16'0 0.0
2018-Sep-10 10:00N 51°57' E 001°16'0 0.0
2018-Sep-10 09:30N 51°57' E 001°16'0 0.0
2018-Sep-10 09:02N 51°57' E 001°16'0 0.0
2018-Sep-10 08:59N 51°57' E 001°16'0 0.0
2018-Sep-10 08:29N 51°57' E 001°16'0 0.0
2018-Sep-10 08:02N 51°57' E 001°16'0 0.0
2018-Sep-10 07:59N 51°57' E 001°16'0 0.0
2018-Sep-10 07:29N 51°57' E 001°16'0 0.0
2018-Sep-10 07:03N 51°57' E 001°16'0 0.0
2018-Sep-10 07:00N 51°57' E 001°16'0 0.2
2018-Sep-10 06:30N 51°57' E 001°16'2 3.7
2018-Sep-10 06:03N 51°57' E 001°18'0 7.8
2018-Sep-10 06:00N 51°57' E 001°19'4 8.2
2018-Sep-10 05:30N 51°56' E 001°25'612.4
2018-Sep-10 05:03N 51°54' E 001°34'115.5
2018-Sep-10 05:01N 51°53' E 001°34'5 9.2
2018-Sep-10 04:31N 51°51' E 001°41'3 7.7
2018-Sep-10 04:04N 51°51' E 001°46'0 9.2
2018-Sep-10 04:01N 51°51' E 001°47'713.4
2018-Sep-10 03:30N 51°51' E 001°58'716.4
2018-Sep-10 03:03N 51°54' E 002°08'116.3
2018-Sep-10 03:00N 51°55' E 002°10'5718.2
2018-Sep-09 23:52N 52°41' E 003°03'1520.3
2018-Sep-09 23:09N 52°54' E 003°14'620.5
2018-Sep-09 22:50N 53°00' E 003°18'29618.5
2018-Sep-09 06:53N 57°07' E 008°02'1317.7
2018-Sep-09 06:09N 57°17' E 008°16'617.6
2018-Sep-09 05:48N 57°22' E 008°24'1217.8
2018-Sep-09 05:09N 57°28' E 008°43'218.1
2018-Sep-09 05:03N 57°29' E 008°46'317.9
2018-Sep-09 04:51N 57°30' E 008°51'717.7
2018-Sep-09 04:27N 57°34' E 009°03'717.7
2018-Sep-09 04:03N 57°38' E 009°15'118.0
2018-Sep-09 04:00N 57°38' E 009°16'  
Track history (hours):
 
Tides and Currents Weather Stations Pressure Air Temp Water Temp Dewpoint Dewpoint Depression Visibility Wind Speed Wind Dir Waves Ship Positions

C0sta Favolosa

Last reported at 2018-Sep-19 03:30 UTC. Time now 2018-Sep-19 03:40 UTC.
Position N 43°48' E 008°10'.

Length 289 m; draft 8.3 m.

Type: Ship. MMSI: 247311100.

Date/timePositionNaut miles runAvg speedWind from/ knotsBaromVisibWave heightAir tempDewpointWater temp
2018-Sep-19 03:30N 43°48' E 008°10'818.2
2018-Sep-19 03:03N 43°43' E 008°02'118.2
2018-Sep-19 03:00N 43°42' E 008°01'918.1
2018-Sep-19 02:30N 43°37' E 007°51'818.3
2018-Sep-19 02:03N 43°31' E 007°43'118.4
2018-Sep-19 02:00N 43°30' E 007°42'918.5
2018-Sep-19 01:30N 43°24' E 007°33'818.8
2018-Sep-19 01:04N 43°18' E 007°25'119.0
2018-Sep-19 01:00N 43°17' E 007°24'918.2
2018-Sep-19 00:30N 43°11' E 007°14'613.0
2018-Sep-19 00:03N 43°07' E 007°08'112.8
2018-Sep-19 00:00N 43°07' E 007°08'612.8
2018-Sep-18 23:30N 43°03' E 007°01'612.8
2018-Sep-18 23:03N 42°59' E 006°55'113.0
2018-Sep-18 22:59N 42°58' E 006°54'712.9
2018-Sep-18 22:26N 42°54' E 006°46'7212.0
2018-Sep-18 16:25N 43°09' E 005°09'512.7
2018-Sep-18 16:02N 43°14' E 005°09'012.7
2018-Sep-18 15:59N 43°14' E 005°09'612.3
2018-Sep-18 15:30N 43°19' E 005°14'4 9.9
2018-Sep-18 15:04N 43°21' E 005°19'0 5.2
2018-Sep-18 15:01N 43°21' E 005°20'0 0.2
2018-Sep-18 14:28N 43°21' E 005°20'0 0.0
2018-Sep-18 10:13N 43°21' E 005°20'0 0.0
2018-Sep-18 07:31N 43°21' E 005°20'0 0.0
2018-Sep-18 07:25N 43°21' E 005°20'0 0.0
2018-Sep-18 07:01N 43°21' E 005°20'0 0.0
2018-Sep-18 06:55N 43°21' E 005°20'0 0.0
2018-Sep-18 06:28N 43°21' E 005°20'0 1.0
2018-Sep-18 06:04N 43°21' E 005°19'0 5.4
2018-Sep-18 06:00N 43°21' E 005°19'5 9.1
2018-Sep-18 05:29N 43°18' E 005°14'510.8
2018-Sep-18 05:03N 43°15' E 005°09'113.0
2018-Sep-18 05:00N 43°15' E 005°08'1018.4
2018-Sep-18 04:29N 43°08' E 004°59'4418.2
2018-Sep-18 02:03N 42°36' E 004°18'1117.0
2018-Sep-18 01:25N 42°31' E 004°05'9216.9
2018-Sep-17 19:58N 41°26' E 002°37'817.9
2018-Sep-17 19:30N 41°21' E 002°28'817.9
2018-Sep-17 19:03N 41°16' E 002°19'117.5
2018-Sep-17 19:00N 41°16' E 002°18'612.7
2018-Sep-17 18:30N 41°18' E 002°10'3 6.8
2018-Sep-17 18:01N 41°21' E 002°10'0 0.0
2018-Sep-17 17:59N 41°21' E 002°10'0 0.0
2018-Sep-17 17:24N 41°21' E 002°10'0 0.0
2018-Sep-17 17:03N 41°21' E 002°10'0 0.0
2018-Sep-17 17:00N 41°21' E 002°10'0 0.0
2018-Sep-17 16:29N 41°21' E 002°10'0 0.0
2018-Sep-17 16:02N 41°21' E 002°10'0 0.0
2018-Sep-17 15:59N 41°21' E 002°10'0 0.0
2018-Sep-17 15:30N 41°21' E 002°10'0 0.0
2018-Sep-17 15:02N 41°21' E 002°10'0 0.0
2018-Sep-17 14:59N 41°21' E 002°10'0 0.0
2018-Sep-17 14:31N 41°21' E 002°10'0 0.0
2018-Sep-17 13:59N 41°21' E 002°10'0 0.0
2018-Sep-17 13:29N 41°21' E 002°10'0 0.0
2018-Sep-17 13:02N 41°21' E 002°10'0 0.0
2018-Sep-17 12:59N 41°21' E 002°10'0 0.0
2018-Sep-17 12:29N 41°21' E 002°10'0 0.0
2018-Sep-17 12:02N 41°21' E 002°10'0 0.0
2018-Sep-17 11:59N 41°21' E 002°10'0 0.0
2018-Sep-17 11:30N 41°21' E 002°10'0 0.0
2018-Sep-17 11:02N 41°21' E 002°10'0 0.0
2018-Sep-17 11:00N 41°21' E 002°10'0 0.0
2018-Sep-17 10:28N 41°21' E 002°10'0 0.1
2018-Sep-17 10:03N 41°21' E 002°10'0 0.6
2018-Sep-17 10:00N 41°21' E 002°10'1 1.8
2018-Sep-17 09:30N 41°20' E 002°10'4 9.7
2018-Sep-17 09:03N 41°16' E 002°11'114.7
2018-Sep-17 09:00N 41°15' E 002°12'917.7
2018-Sep-17 08:30N 41°07' E 002°08'920.8
2018-Sep-17 08:03N 40°58' E 002°03'221.0
2018-Sep-17 07:57N 40°57' E 002°01'19721.0
2018-Sep-16 22:35N 38°05' W 000°03'420.6
2018-Sep-16 22:24N 38°02' W 000°06'2120.4
2018-Sep-16 21:23N 37°45' W 000°21'820.7
2018-Sep-16 21:00N 37°38' W 000°26'1220.6
2018-Sep-16 20:25N 37°29' W 000°36'820.9
2018-Sep-16 20:02N 37°24' W 000°44'121.2
2018-Sep-16 20:00N 37°23' W 000°44'1021.0
2018-Sep-16 19:30N 37°16' W 000°54'1020.7
2018-Sep-16 19:02N 37°10' W 001°03'120.8
2018-Sep-16 18:58N 37°09' W 001°05'21119.7
2018-Sep-16 08:15N 36°00' W 005°13'421.6
2018-Sep-16 08:03N 35°59' W 005°18'121.5
2018-Sep-16 08:00N 35°59' W 005°19'1420.6
2018-Sep-16 07:20N 35°55' W 005°36'921.0
2018-Sep-16 06:55N 35°55' W 005°47'921.0
2018-Sep-16 06:29N 35°54' W 005°58'1120.3
2018-Sep-16 05:58N 35°55' W 006°11'9019.1
2018-Sep-16 01:15N 36°18' W 007°58'519.8
2018-Sep-16 01:00N 36°19' W 008°04'1219.5
2018-Sep-16 00:22N 36°23' W 008°19'719.5
2018-Sep-16 00:01N 36°25' W 008°27'019.9
2018-Sep-16 00:00N 36°25' W 008°27'1019.5
2018-Sep-15 23:30N 36°27' W 008°39'919.3
2018-Sep-15 23:03N 36°29' W 008°49'119.4
2018-Sep-15 23:00N 36°29' W 008°51'1019.6
2018-Sep-15 22:30N 36°31' W 009°02'919.3
2018-Sep-15 22:03N 36°33' W 009°13'119.1
2018-Sep-15 22:00N 36°34' W 009°14'918.9
2018-Sep-15 21:30N 36°39' W 009°24'920.1
2018-Sep-15 21:03N 36°46' W 009°31'119.4
2018-Sep-15 21:00N 36°46' W 009°32'1019.6
2018-Sep-15 20:30N 36°56' W 009°35'919.8
2018-Sep-15 20:03N 37°05' W 009°35'119.8
2018-Sep-15 20:00N 37°06' W 009°34'1019.8
2018-Sep-15 19:30N 37°16' W 009°34'919.8
2018-Sep-15 19:03N 37°24' W 009°33'119.8
2018-Sep-15 19:00N 37°26' W 009°32'1019.5
2018-Sep-15 18:30N 37°35' W 009°31'919.2
2018-Sep-15 18:03N 37°44' W 009°30'119.6
2018-Sep-15 18:00N 37°45' W 009°30'1019.5
2018-Sep-15 17:30N 37°54' W 009°29'919.5
2018-Sep-15 17:03N 38°03' W 009°28'119.5
2018-Sep-15 17:00N 38°04' W 009°28'1019.5
2018-Sep-15 16:30N 38°14' W 009°27'919.6
2018-Sep-15 16:03N 38°23' W 009°26'119.6
2018-Sep-15 16:00N 38°24' W 009°26'1019.5
2018-Sep-15 15:30N 38°33' W 009°25'817.0
2018-Sep-15 15:03N 38°40' W 009°19'611.0
2018-Sep-15 14:30N 38°41' W 009°12'4 6.9
2018-Sep-15 13:59N 38°43' W 009°07'0 0.0
2018-Sep-15 13:28N 38°43' W 009°07'0 0.0
2018-Sep-15 13:02N 38°43' W 009°07'0 0.0
2018-Sep-15 12:59N 38°43' W 009°07'0 0.0
2018-Sep-15 12:29N 38°43' W 009°07'0 0.0
2018-Sep-15 12:01N 38°43' W 009°07'0 0.0
2018-Sep-15 11:58N 38°43' W 009°07'0 0.0
2018-Sep-15 11:27N 38°43' W 009°07'0 0.0
2018-Sep-15 11:03N 38°43' W 009°07'0 0.0
2018-Sep-15 11:00N 38°43' W 009°07'0 0.0
2018-Sep-15 10:30N 38°43' W 009°07'0 0.0
2018-Sep-15 10:03N 38°43' W 009°07'0 0.0
2018-Sep-15 09:57N 38°43' W 009°07'0 0.0
2018-Sep-15 09:26N 38°43' W 009°07'0 0.0
2018-Sep-15 09:01N 38°43' W 009°07'0 0.0
2018-Sep-15 08:55N 38°43' W 009°07'0 0.0
2018-Sep-15 08:27N 38°43' W 009°07'0 0.0
2018-Sep-15 08:02N 38°43' W 009°07'0 0.0
2018-Sep-15 07:59N 38°43' W 009°07'0 0.0
2018-Sep-15 07:28N 38°43' W 009°07'0 0.0
2018-Sep-15 07:03N 38°43' W 009°07'0 0.0
2018-Sep-15 07:00N 38°43' W 009°07'0 0.0
2018-Sep-15 06:30N 38°43' W 009°07'0 0.5
2018-Sep-15 06:03N 38°42' W 009°07'0 2.9
2018-Sep-15 06:00N 38°42' W 009°08'4 7.5
2018-Sep-15 05:30N 38°41' W 009°12'510.6
2018-Sep-15 05:03N 38°40' W 009°18'117.6
2018-Sep-15 05:00N 38°40' W 009°19'815.5
2018-Sep-15 04:31N 38°36' W 009°27'817.6
2018-Sep-15 04:04N 38°36' W 009°38'118.0
2018-Sep-15 04:00N 38°36' W 009°39'917.0
2018-Sep-15 03:30N 38°44' W 009°43'817.9
2018-Sep-15 03:04N 38°52' W 009°43'118.1
2018-Sep-15 03:00N 38°53' W 009°43'917.9
2018-Sep-15 02:30N 39°02' W 009°44'818.8
2018-Sep-15 02:03N 39°11' W 009°44'120.0
2018-Sep-15 02:01N 39°12' W 009°44'1019.2
2018-Sep-15 01:30N 39°21' W 009°43'919.3
2018-Sep-15 01:03N 39°30' W 009°44'118.9
2018-Sep-15 01:01N 39°31' W 009°45'918.3
2018-Sep-15 00:30N 39°40' W 009°46'716.3
2018-Sep-15 00:03N 39°47' W 009°43'217.9
2018-Sep-14 23:55N 39°48' W 009°40'716.6
2018-Sep-14 23:30N 39°55' W 009°36'716.7
2018-Sep-14 23:03N 40°02' W 009°39'118.2
2018-Sep-14 22:59N 40°03' W 009°38'917.9
2018-Sep-14 22:30N 40°11' W 009°34'918.7
2018-Sep-14 22:02N 40°20' W 009°32'318.1
2018-Sep-14 21:54N 40°22' W 009°31'718.1
2018-Sep-14 21:30N 40°29' W 009°29'5618.4
2018-Sep-14 18:26N 41°24' W 009°13'918.9
2018-Sep-14 17:59N 41°32' W 009°10'1319.1
2018-Sep-14 17:17N 41°45' W 009°06'418.7
2018-Sep-14 17:03N 41°50' W 009°05'218.5
2018-Sep-14 16:58N 41°51' W 009°05'  
2018-Sep-12 08:47N 49°02' W 005°23'819.4
2018-Sep-12 08:23N 49°06' W 005°12'3519.1
2018-Sep-12 06:32N 49°24' W 004°26'418.5
2018-Sep-12 06:19N 49°26' W 004°20'519.4
2018-Sep-12 06:03N 49°29' W 004°13'319.4
2018-Sep-12 05:56N 49°30' W 004°10'1019.7
2018-Sep-12 05:25N 49°35' W 003°57'820.2
2018-Sep-12 05:01N 49°38' W 003°45'120.5
2018-Sep-12 04:58N 49°39' W 003°44'1321.1
2018-Sep-12 04:20N 49°46' W 003°26'622.0
2018-Sep-12 04:03N 49°49' W 003°19'221.6
2018-Sep-12 03:58N 49°50' W 003°16'1022.4
2018-Sep-12 03:30N 49°57' W 003°04'1022.8
2018-Sep-12 03:03N 49°59' W 002°48'123.1
2018-Sep-12 03:00N 49°60' W 002°46'1123.1
2018-Sep-12 02:30N 50°02' W 002°29'1023.2
2018-Sep-12 02:03N 50°05' W 002°13'123.2
2018-Sep-12 02:00N 50°05' W 002°12'1122.8
2018-Sep-12 01:30N 50°08' W 001°54'1021.5
2018-Sep-12 01:03N 50°10' W 001°39'122.0
2018-Sep-12 01:00N 50°10' W 001°38'1020.7
2018-Sep-12 00:31N 50°09' W 001°22'919.4
2018-Sep-12 00:03N 50°05' W 001°10'120.1
2018-Sep-12 00:00N 50°04' W 001°09'1019.4
2018-Sep-11 23:31N 49°57' W 000°58'919.0
2018-Sep-11 23:03N 49°51' W 000°48'118.6
2018-Sep-11 23:01N 49°51' W 000°47'1018.9
2018-Sep-11 22:30N 49°44' W 000°36'819.1
2018-Sep-11 22:03N 49°38' W 000°27'119.2
2018-Sep-11 22:00N 49°37' W 000°26'817.1
2018-Sep-11 21:31N 49°33' W 000°15'714.7
2018-Sep-11 21:03N 49°32' W 000°05'0 7.5
2018-Sep-11 21:00N 49°31' W 000°04'713.3
2018-Sep-11 20:31N 49°29' E 000°05'1 2.5
2018-Sep-11 20:01N 49°29' E 000°07'0 0.0
2018-Sep-11 19:58N 49°29' E 000°07'0 0.0
2018-Sep-11 19:30N 49°29' E 000°07'0 0.0
2018-Sep-11 19:02N 49°29' E 000°07'0 0.0
2018-Sep-11 18:59N 49°29' E 000°07'0 0.0
2018-Sep-11 18:29N 49°29' E 000°07'0 0.0
2018-Sep-11 17:59N 49°29' E 000°07'0 0.0
2018-Sep-11 17:28N 49°29' E 000°07'0 0.0
2018-Sep-11 17:01N 49°29' E 000°07'0 0.0
2018-Sep-11 16:58N 49°29' E 000°07'0 0.0
2018-Sep-11 16:30N 49°29' E 000°07'0 0.0
2018-Sep-11 16:02N 49°29' E 000°07'0 0.0
2018-Sep-11 15:59N 49°29' E 000°07'0 0.0
2018-Sep-11 15:28N 49°29' E 000°07'0 0.0
2018-Sep-11 15:01N 49°29' E 000°07'0 0.0
2018-Sep-11 14:58N 49°29' E 000°07'0 0.0
2018-Sep-11 14:28N 49°29' E 000°07'0 0.0
2018-Sep-11 14:00N 49°29' E 000°07'0 0.0
2018-Sep-11 13:29N 49°29' E 000°07'0 0.0
2018-Sep-11 12:58N 49°29' E 000°07'0 0.0
2018-Sep-11 12:29N 49°29' E 000°07'0 0.0
2018-Sep-11 12:02N 49°29' E 000°07'0 0.0
2018-Sep-11 11:59N 49°29' E 000°07'0 0.0
2018-Sep-11 11:28N 49°29' E 000°07'0 0.0
2018-Sep-11 11:01N 49°29' E 000°07'0 0.0
2018-Sep-11 10:58N 49°29' E 000°07'0 0.0
2018-Sep-11 10:29N 49°29' E 000°07'0 0.0
2018-Sep-11 10:02N 49°29' E 000°07'0 0.0
2018-Sep-11 09:59N 49°29' E 000°07'0 0.0
2018-Sep-11 09:29N 49°29' E 000°07'0 0.0
2018-Sep-11 09:02N 49°29' E 000°07'0 0.0
2018-Sep-11 08:59N 49°29' E 000°07'0 0.0
2018-Sep-11 08:28N 49°29' E 000°07'0 0.0
2018-Sep-11 08:01N 49°29' E 000°07'0 0.0
2018-Sep-11 07:58N 49°29' E 000°07'0 0.0
2018-Sep-11 07:29N 49°29' E 000°07'0 0.0
2018-Sep-11 07:03N 49°29' E 000°07'0 0.0
2018-Sep-11 06:59N 49°29' E 000°07'0 0.0
2018-Sep-11 06:30N 49°29' E 000°07'1 2.7
2018-Sep-11 06:03N 49°29' E 000°05'0 6.9
2018-Sep-11 06:00N 49°29' E 000°05'713.8
2018-Sep-11 05:31N 49°31' W 000°05'612.7
2018-Sep-11 05:03N 49°35' W 000°11'117.2
2018-Sep-11 05:00N 49°36' W 000°11'1020.1
2018-Sep-11 04:30N 49°46' W 000°12'1021.6
2018-Sep-11 04:03N 49°56' W 000°11'121.6
2018-Sep-11 04:00N 49°57' W 000°11'1121.7
2018-Sep-11 03:30N 50°08' W 000°10'1021.7
2018-Sep-11 03:03N 50°18' W 000°07'122.2
2018-Sep-11 03:00N 50°19' W 000°07'1121.1
2018-Sep-11 02:30N 50°28' W 000°00'1022.2
2018-Sep-11 02:03N 50°32' E 000°14'122.3
2018-Sep-11 02:00N 50°32' E 000°16'1121.9
2018-Sep-11 01:30N 50°36' E 000°32'920.7
2018-Sep-11 01:03N 50°41' E 000°44'120.6
2018-Sep-11 01:00N 50°42' E 000°45'1020.0
2018-Sep-11 00:30N 50°48' E 000°58'919.1
2018-Sep-11 00:03N 50°54' E 001°08'118.9
2018-Sep-11 00:00N 50°54' E 001°09'918.6
2018-Sep-10 23:30N 51°01' E 001°20'818.7
2018-Sep-10 23:03N 51°06' E 001°30'119.8
2018-Sep-10 23:00N 51°07' E 001°31'1020.2
2018-Sep-10 22:30N 51°15' E 001°42'1022.3
2018-Sep-10 22:03N 51°25' E 001°45'122.9
2018-Sep-10 22:01N 51°26' E 001°45'1223.2
2018-Sep-10 21:31N 51°37' E 001°45'1123.4
2018-Sep-10 21:04N 51°48' E 001°44'121.7
2018-Sep-10 21:01N 51°49' E 001°43'714.0
2018-Sep-10 20:30N 51°53' E 001°33'510.5
2018-Sep-10 20:03N 51°56' E 001°29'115.1
2018-Sep-10 20:00N 51°56' E 001°27'510.7
2018-Sep-10 19:30N 51°56' E 001°19'2 4.1
2018-Sep-10 19:02N 51°57' E 001°16'0 0.8
2018-Sep-10 18:59N 51°57' E 001°16'0 0.0
2018-Sep-10 18:29N 51°57' E 001°16'0 0.0
2018-Sep-10 18:02N 51°57' E 001°16'0 0.0
2018-Sep-10 17:59N 51°57' E 001°16'0 0.0
2018-Sep-10 17:29N 51°57' E 001°16'0 0.0
2018-Sep-10 17:02N 51°57' E 001°16'0 0.0
2018-Sep-10 16:59N 51°57' E 001°16'0 0.0
2018-Sep-10 16:29N 51°57' E 001°16'0 0.0
2018-Sep-10 16:02N 51°57' E 001°16'0 0.0
2018-Sep-10 16:00N 51°57' E 001°16'0 0.0
2018-Sep-10 15:28N 51°57' E 001°16'0 0.0
2018-Sep-10 15:01N 51°57' E 001°16'0 0.0
2018-Sep-10 14:58N 51°57' E 001°16'0 0.0
2018-Sep-10 14:01N 51°57' E 001°16'0 0.0
2018-Sep-10 13:58N 51°57' E 001°16'0 0.0
2018-Sep-10 13:28N 51°57' E 001°16'0 0.0
2018-Sep-10 13:01N 51°57' E 001°16'0 0.0
2018-Sep-10 12:58N 51°57' E 001°16'0 0.0
2018-Sep-10 12:30N 51°57' E 001°16'0 0.0
2018-Sep-10 12:03N 51°57' E 001°16'0 0.0
2018-Sep-10 12:00N 51°57' E 001°16'0 0.0
2018-Sep-10 11:30N 51°57' E 001°16'0 0.0
2018-Sep-10 11:02N 51°57' E 001°16'0 0.0
2018-Sep-10 10:59N 51°57' E 001°16'0 0.0
2018-Sep-10 10:29N 51°57' E 001°16'0 0.0
2018-Sep-10 10:03N 51°57' E 001°16'0 0.0
2018-Sep-10 10:00N 51°57' E 001°16'0 0.0
2018-Sep-10 09:30N 51°57' E 001°16'0 0.0
2018-Sep-10 09:02N 51°57' E 001°16'0 0.0
2018-Sep-10 08:59N 51°57' E 001°16'0 0.0
2018-Sep-10 08:29N 51°57' E 001°16'0 0.0
2018-Sep-10 08:02N 51°57' E 001°16'0 0.0
2018-Sep-10 07:59N 51°57' E 001°16'0 0.0
2018-Sep-10 07:29N 51°57' E 001°16'0 0.0
2018-Sep-10 07:03N 51°57' E 001°16'0 0.0
2018-Sep-10 07:00N 51°57' E 001°16'0 0.2
2018-Sep-10 06:30N 51°57' E 001°16'2 3.7
2018-Sep-10 06:03N 51°57' E 001°18'0 7.8
2018-Sep-10 06:00N 51°57' E 001°19'4 8.2
2018-Sep-10 05:30N 51°56' E 001°25'612.4
2018-Sep-10 05:03N 51°54' E 001°34'115.5
2018-Sep-10 05:01N 51°53' E 001°34'5 9.2
2018-Sep-10 04:31N 51°51' E 001°41'3 7.7
2018-Sep-10 04:04N 51°51' E 001°46'0 9.2
2018-Sep-10 04:01N 51°51' E 001°47'713.4
2018-Sep-10 03:30N 51°51' E 001°58'716.4
2018-Sep-10 03:03N 51°54' E 002°08'116.3
2018-Sep-10 03:00N 51°55' E 002°10'5718.2
2018-Sep-09 23:52N 52°41' E 003°03'1520.3
2018-Sep-09 23:09N 52°54' E 003°14'620.5
2018-Sep-09 22:50N 53°00' E 003°18'29618.5
2018-Sep-09 06:53N 57°07' E 008°02'1317.7
2018-Sep-09 06:09N 57°17' E 008°16'617.6
2018-Sep-09 05:48N 57°22' E 008°24'1217.8
2018-Sep-09 05:09N 57°28' E 008°43'218.1
2018-Sep-09 05:03N 57°29' E 008°46'317.9
2018-Sep-09 04:51N 57°30' E 008°51'717.7
2018-Sep-09 04:27N 57°34' E 009°03'717.7
2018-Sep-09 04:03N 57°38' E 009°15'118.0
2018-Sep-09 04:00N 57°38' E 009°16'  

Dump ship's entire track history